Terminal Aerodrome Forecast
Issued by NWS

Home | Current Version | Previous Version | Text Only | Print | Product List | Glossary On
Versions: 1 2 3 4 5 6 7 8 9 10 11 12 13
000
FTAK31 PANC 221136
TAFADU
TAF
PADU 221136Z 2212/2312 VRB03KT P6SM SCT150
     FM222200 14008G15KT 6SM -RA BR SCT015 OVC025
     FM230300 15010G20KT 3SM -RA BR SCT007 OVC015
     FM230600 18010KT 2SM -RA BR OVC007
     FM230900 20008KT 5SM -SHRA BR SCT007 OVC015=

USA.gov is the U.S. government's official web portal to all federal, state and local government web resources and services.